createdAt,value
2022-08-07T00:02:36.831Z,101119.84
2022-08-07T00:05:05.798Z,101118.52
2022-08-07T00:07:40.153Z,101120.11
2022-08-07T00:10:27.310Z,101122.54
2022-08-07T00:13:02.476Z,101123.63
2022-08-07T00:15:37.725Z,101128.43
2022-08-07T00:18:19.715Z,101129.50
2022-08-07T00:21:01.667Z,101133.14
2022-08-07T00:23:33.053Z,101127.27
2022-08-07T00:26:13.251Z,101125.53
2022-08-07T00:28:55.657Z,101126.33
2022-08-07T00:31:37.954Z,101126.89
2022-08-07T00:34:09.737Z,101125.73
2022-08-07T00:36:43.251Z,101126.89
2022-08-07T00:39:16.957Z,101122.85
2022-08-07T00:42:01.727Z,101121.61
2022-08-07T00:44:35.480Z,101119.36
2022-08-07T00:48:05.315Z,101124.10
2022-08-07T00:50:20.158Z,101127.39
2022-08-07T00:52:47.535Z,101124.91
2022-08-07T00:55:17.503Z,101124.23
2022-08-07T00:58:06.520Z,101123.65
2022-08-07T01:00:36.670Z,101120.41
2022-08-07T01:03:06.696Z,101122.98
2022-08-07T01:05:42.870Z,101122.16
2022-08-07T01:08:22.454Z,101120.65
2022-08-07T01:10:57.081Z,101116.46
2022-08-07T01:13:29.358Z,101121.10
2022-08-07T01:16:06.101Z,101122.20
2022-08-07T01:18:35.980Z,101121.30
2022-08-07T01:21:22.655Z,101121.30
2022-08-07T01:23:57.895Z,101122.84
2022-08-07T01:26:27.492Z,101117.61
2022-08-07T01:28:55.976Z,101121.87
2022-08-07T01:31:41.720Z,101121.63
2022-08-07T01:34:14.343Z,101124.95
2022-08-07T01:36:44.877Z,101122.98
2022-08-07T01:39:41.060Z,101120.52
2022-08-07T01:42:39.236Z,101125.05
2022-08-07T01:45:36.176Z,101122.94
2022-08-07T01:48:19.897Z,101121.73
2022-08-07T01:52:00.964Z,101124.98
2022-08-07T01:54:09.260Z,101125.48
2022-08-07T01:56:56.598Z,101129.27
2022-08-07T01:59:35.922Z,101129.92
2022-08-07T02:03:11.390Z,101128.98
2022-08-07T02:05:43.006Z,101137.30
2022-08-07T02:08:23.812Z,101136.41
2022-08-07T02:10:58.156Z,101141.39
2022-08-07T02:13:57.551Z,101143.48
2022-08-07T02:16:29.950Z,101141.38
2022-08-07T02:19:05.680Z,101142.09
2022-08-07T02:21:58.792Z,101138.80
2022-08-07T02:24:30.220Z,101137.07
2022-08-07T02:27:03.062Z,101137.93
2022-08-07T02:29:36.739Z,101139.72
2022-08-07T02:32:15.171Z,101145.84
2022-08-07T02:34:48.940Z,101142.98
2022-08-07T02:37:22.903Z,101144.67
2022-08-07T02:40:11.454Z,101148.98
2022-08-07T02:42:45.212Z,101151.73
2022-08-07T02:46:00.630Z,101148.13
2022-08-07T02:48:10.257Z,101149.81
2022-08-07T02:50:50.949Z,101154.19
2022-08-07T02:53:27.291Z,101155.73
2022-08-07T02:56:03.587Z,101156.64
2022-08-07T02:58:37.122Z,101161.23
2022-08-07T03:01:18.879Z,101162.37
2022-08-07T03:03:50.853Z,101161.34
2022-08-07T03:06:33.095Z,101163.29
2022-08-07T03:09:06.054Z,101167.26
2022-08-07T03:11:38.928Z,101161.50
2022-08-07T03:14:22.488Z,101157.40
2022-08-07T03:16:52.464Z,101156.34
2022-08-07T03:19:22.022Z,101153.23
2022-08-07T03:21:51.290Z,101155.58
2022-08-07T03:24:27.353Z,101157.44
2022-08-07T03:27:02.306Z,101152.91
2022-08-07T03:29:46.236Z,101152.73
2022-08-07T03:32:24.836Z,101153.16
2022-08-07T03:35:16.865Z,101151.78
2022-08-07T03:37:54.043Z,101147.30
2022-08-07T03:40:30.832Z,101147.40
2022-08-07T03:43:01.435Z,101147.81
2022-08-07T03:45:32.993Z,101148.52
2022-08-07T03:48:11.462Z,101148.66
2022-08-07T03:50:43.133Z,101152.29
2022-08-07T03:53:20.618Z,101153.54
2022-08-07T03:56:13.660Z,101154.27
2022-08-07T03:59:09.518Z,101156.56
2022-08-07T04:01:33.130Z,101159.20
2022-08-07T04:04:05.601Z,101163.19
2022-08-07T04:06:38.706Z,101162.79
2022-08-07T04:09:16.297Z,101163.83
2022-08-07T04:12:25.455Z,101162.63
2022-08-07T04:14:43.746Z,101157.88
2022-08-07T04:17:21.545Z,101162.63
2022-08-07T04:20:10.360Z,101163.05
2022-08-07T04:22:41.088Z,101163.41
2022-08-07T04:25:24.624Z,101162.80
2022-08-07T04:27:59.214Z,101163.41
2022-08-07T04:30:35.943Z,101163.95
2022-08-07T04:33:20.580Z,101161.93
2022-08-07T04:35:53.948Z,101164.92
2022-08-07T04:38:26.987Z,101166.16
2022-08-07T04:40:56.741Z,101166.91
2022-08-07T04:44:12.515Z,101169.34
2022-08-07T04:46:59.659Z,101170.04
2022-08-07T04:50:04.827Z,101178.35
2022-08-07T04:52:51.062Z,101176.42
2022-08-07T04:58:16.264Z,101172.08
2022-08-07T04:59:18.460Z,101178.46
2022-08-07T05:01:54.077Z,101182.23
2022-08-07T05:04:47.070Z,101185.30
2022-08-07T05:07:48.352Z,101189.13
2022-08-07T05:10:29.263Z,101189.66
2022-08-07T05:14:44.321Z,101192.05
2022-08-07T05:16:00.037Z,101193.81
2022-08-07T05:18:36.903Z,101193.77
2022-08-07T05:21:12.552Z,101196.88
2022-08-07T05:23:53.593Z,101198.77
2022-08-07T05:26:24.968Z,101197.61
2022-08-07T05:29:04.375Z,101199.38
2022-08-07T05:31:38.569Z,101197.21
2022-08-07T05:34:13.761Z,101194.13
2022-08-07T05:36:48.975Z,101194.41
2022-08-07T05:40:17.085Z,101191.55
2022-08-07T05:42:33.329Z,101187.26
2022-08-07T05:45:14.193Z,101187.05
2022-08-07T05:48:01.489Z,101192.45
2022-08-07T05:50:39.479Z,101198.02
2022-08-07T05:54:08.709Z,101201.59
2022-08-07T05:56:06.740Z,101200.59
2022-08-07T05:58:41.967Z,101201.98
2022-08-07T06:01:24.462Z,101208.73
2022-08-07T06:03:58.854Z,101209.29
2022-08-07T06:06:35.639Z,101209.79
2022-08-07T06:09:06.421Z,101209.82
2022-08-07T06:11:39.522Z,101208.61
2022-08-07T06:14:12.752Z,101212.77
2022-08-07T06:16:55.922Z,101208.48
2022-08-07T06:19:58.230Z,101213.13
2022-08-07T06:22:27.138Z,101210.77
2022-08-07T06:25:10.689Z,101206.96
2022-08-07T06:28:00.679Z,101208.59
2022-08-07T06:30:35.990Z,101211.77
2022-08-07T06:33:15.965Z,101214.10
2022-08-07T06:36:06.586Z,101217.47
2022-08-07T06:38:36.727Z,101218.98
2022-08-07T06:41:12.914Z,101219.80
2022-08-07T06:43:46.128Z,101218.64
2022-08-07T06:46:20.534Z,101224.73
2022-08-07T06:49:05.623Z,101224.41
2022-08-07T06:51:49.447Z,101220.55
2022-08-07T06:55:34.503Z,101219.92
2022-08-07T06:57:13.808Z,101215.60
2022-08-07T07:00:11.708Z,101217.30
2022-08-07T07:02:54.050Z,101220.72
2022-08-07T07:06:03.163Z,101219.87
2022-08-07T07:08:18.656Z,101218.01
2022-08-07T07:10:56.835Z,101210.98
2022-08-07T07:13:57.949Z,101213.44
2022-08-07T07:16:45.023Z,101208.38
2022-08-07T07:19:56.578Z,101209.75
2022-08-07T07:22:35.783Z,101205.13
2022-08-07T07:26:31.358Z,101207.21
2022-08-07T07:28:29.519Z,101205.96
2022-08-07T07:31:04.227Z,101206.87
2022-08-07T07:33:35.589Z,101202.48
2022-08-07T07:36:13.448Z,101202.20
2022-08-07T07:38:47.752Z,101202.18
2022-08-07T07:41:22.118Z,101194.93
2022-08-07T07:44:17.596Z,101192.81
2022-08-07T07:47:02.194Z,101193.92
2022-08-07T07:50:32.478Z,101192.45
2022-08-07T07:52:37.671Z,101193.09
2022-08-07T07:55:11.739Z,101190.52
2022-08-07T07:57:53.803Z,101190.56
2022-08-07T08:00:29.971Z,101186.08
2022-08-07T08:03:16.707Z,101187.98
2022-08-07T08:05:59.236Z,101183.85
2022-08-07T08:08:36.886Z,101181.48
2022-08-07T08:11:16.423Z,101184.45
2022-08-07T08:13:54.570Z,101175.59
2022-08-07T08:16:39.254Z,101176.05
2022-08-07T08:20:15.720Z,101182.36
2022-08-07T08:22:23.439Z,101179.94
2022-08-07T08:25:27.064Z,101178.96
2022-08-07T08:28:23.727Z,101175.33
2022-08-07T08:31:14.655Z,101175.46
2022-08-07T08:33:49.750Z,101177.20
2022-08-07T08:36:30.199Z,101173.64
2022-08-07T08:39:02.634Z,101177.21
2022-08-07T08:41:57.158Z,101174.88
2022-08-07T08:44:44.386Z,101173.87
2022-08-07T08:47:52.026Z,101174.61
2022-08-07T08:50:34.797Z,101174.67
2022-08-07T08:53:23.064Z,101177.73
2022-08-07T08:56:05.467Z,101176.73
2022-08-07T08:58:54.500Z,101182.81
2022-08-07T09:01:39.878Z,101180.84
2022-08-07T09:04:37.033Z,101177.74
2022-08-07T09:07:45.902Z,101181.38
2022-08-07T09:10:29.704Z,101179.33
2022-08-07T09:13:14.839Z,101172.39
2022-08-07T09:16:22.377Z,101170.43
2022-08-07T09:18:58.857Z,101168.79
2022-08-07T09:22:10.177Z,101165.27
2022-08-07T09:25:07.096Z,101162.27
2022-08-07T09:28:00.459Z,101163.92
2022-08-07T09:30:49.690Z,101167.05
2022-08-07T09:33:57.724Z,101169.39
2022-08-07T09:36:36.976Z,101163.06
2022-08-07T09:39:52.943Z,101157.86
2022-08-07T09:42:23.115Z,101150.75
2022-08-07T09:47:42.417Z,101153.81
2022-08-07T09:48:07.541Z,101150.67
2022-08-07T09:50:56.810Z,101148.65
2022-08-07T09:53:40.854Z,101145.61
2022-08-07T09:56:37.462Z,101138.25
2022-08-07T09:59:44.557Z,101138.30
2022-08-07T10:02:39.967Z,101132.88
2022-08-07T10:06:00.052Z,101136.03
2022-08-07T10:08:44.139Z,101135.72
2022-08-07T10:12:01.205Z,101127.17
2022-08-07T10:14:54.356Z,101124.77
2022-08-07T10:18:01.193Z,101124.30
2022-08-07T10:20:50.480Z,101123.85
2022-08-07T10:24:05.955Z,101119.59
2022-08-07T10:27:23.003Z,101117.69
2022-08-07T10:30:13.336Z,101106.77
2022-08-07T10:33:00.220Z,101106.44
2022-08-07T10:35:55.184Z,101106.10
2022-08-07T10:38:58.494Z,101100.16
2022-08-07T10:41:51.365Z,101094.80
2022-08-07T10:44:46.296Z,101094.76
2022-08-07T10:47:53.807Z,101092.50
2022-08-07T10:50:34.461Z,101090.83
2022-08-07T10:53:41.692Z,101086.52
2022-08-07T10:56:33.287Z,101087.66
2022-08-07T10:59:45.359Z,101083.10
2022-08-07T11:02:33.330Z,101080.66
2022-08-07T11:05:10.628Z,101076.74
2022-08-07T11:07:59.453Z,101074.56
2022-08-07T11:11:01.878Z,101069.92
2022-08-07T11:14:46.452Z,101068.50
2022-08-07T11:17:08.985Z,101066.36
2022-08-07T11:20:00.188Z,101062.65
2022-08-07T11:23:13.269Z,101066.13
2022-08-07T11:26:32.060Z,101059.91
2022-08-07T11:29:12.933Z,101056.40
2022-08-07T11:32:25.923Z,101050.84
2022-08-07T11:35:03.353Z,101053.77
2022-08-07T11:38:12.863Z,101048.46
2022-08-07T11:41:22.080Z,101050.11
2022-08-07T11:44:11.931Z,101045.58
2022-08-07T11:47:14.240Z,101039.76
2022-08-07T11:50:30.411Z,101042.47
2022-08-07T11:53:21.730Z,101048.51
2022-08-07T11:56:38.477Z,101041.82
2022-08-07T12:00:07.807Z,101039.64
2022-08-07T12:02:32.098Z,101036.55
2022-08-07T12:05:47.448Z,101034.05
2022-08-07T12:08:25.703Z,101029.13
2022-08-07T12:11:20.702Z,101028.83
2022-08-07T12:14:02.899Z,101026.93
2022-08-07T12:16:38.821Z,101021.08
2022-08-07T12:19:23.578Z,101024.91
2022-08-07T12:22:38.654Z,101020.79
2022-08-07T12:26:21.614Z,101021.89
2022-08-07T12:28:31.724Z,101019.09
2022-08-07T12:31:11.896Z,101016.27
2022-08-07T12:34:00.830Z,101010.70
2022-08-07T12:36:33.914Z,101007.96
2022-08-07T12:39:41.138Z,101004.06
2022-08-07T12:41:55.179Z,100999.39
2022-08-07T12:44:26.148Z,100997.11
2022-08-07T12:47:30.610Z,100986.98
2022-08-07T12:50:38.588Z,100987.47
2022-08-07T12:53:17.487Z,100987.98
2022-08-07T12:56:02.354Z,100980.10
2022-08-07T12:58:39.926Z,100983.83
2022-08-07T13:01:40.721Z,100980.92
2022-08-07T13:04:38.013Z,100982.92
2022-08-07T13:08:18.741Z,100980.04
2022-08-07T13:11:23.316Z,100975.55
2022-08-07T13:14:59.905Z,100975.77
2022-08-07T13:18:00.292Z,100973.85
2022-08-07T13:20:34.883Z,100971.27
2022-08-07T13:24:01.981Z,100960.52
2022-08-07T13:26:57.930Z,100956.23
2022-08-07T13:30:04.492Z,100954.85
2022-08-07T13:32:49.586Z,100954.10
2022-08-07T13:35:59.924Z,100950.82
2022-08-07T13:38:50.773Z,100948.22
2022-08-07T13:41:47.540Z,100946.95
2022-08-07T13:44:26.042Z,100940.06
2022-08-07T13:47:00.237Z,100932.83
2022-08-07T13:50:35.586Z,100929.76
2022-08-07T13:52:41.141Z,100926.74
2022-08-07T13:55:26.544Z,100921.76
2022-08-07T13:58:31.705Z,100917.98
2022-08-07T14:01:13.908Z,100911.94
2022-08-07T14:04:05.117Z,100912.37
2022-08-07T14:06:39.751Z,100907.01
2022-08-07T14:10:01.912Z,100901.88
2022-08-07T14:12:49.402Z,100904.52
2022-08-07T14:15:36.067Z,100902.75
2022-08-07T14:18:29.290Z,100900.68
2022-08-07T14:22:02.122Z,100894.16
2022-08-07T14:24:42.658Z,100896.45
2022-08-07T14:28:10.737Z,100896.55
2022-08-07T14:30:52.206Z,100894.75
2022-08-07T14:33:45.329Z,100889.84
2022-08-07T14:36:20.188Z,100889.09
2022-08-07T14:38:58.413Z,100891.52
2022-08-07T14:42:22.111Z,100883.73
2022-08-07T14:44:30.895Z,100878.17
2022-08-07T14:47:14.240Z,100888.41
2022-08-07T14:49:58.142Z,100887.00
2022-08-07T14:52:36.073Z,100879.90
2022-08-07T14:55:07.905Z,100879.64
2022-08-07T14:57:58.286Z,100881.08
2022-08-07T15:00:35.790Z,100876.84
2022-08-07T15:03:17.482Z,100877.76
2022-08-07T15:05:55.181Z,100873.45
2022-08-07T15:08:52.998Z,100872.87
2022-08-07T15:11:53.999Z,100873.88
2022-08-07T15:14:30.629Z,100877.80
2022-08-07T15:17:14.458Z,100874.08
2022-08-07T15:22:54.108Z,100866.14
2022-08-07T15:25:36.457Z,100869.38
2022-08-07T15:28:34.842Z,100864.81
2022-08-07T15:34:15.095Z,100862.63
2022-08-07T15:37:08.363Z,100860.67
2022-08-07T15:39:57.799Z,100857.49
2022-08-07T15:42:45.017Z,100857.02
2022-08-07T15:45:58.194Z,100857.17
2022-08-07T15:48:33.614Z,100850.81
2022-08-07T15:51:11.800Z,100848.80
2022-08-07T15:53:53.639Z,100850.88
2022-08-07T15:56:41.801Z,100847.70
2022-08-07T15:59:20.354Z,100840.34
2022-08-07T16:02:15.348Z,100839.66
2022-08-07T16:04:46.736Z,100843.34
2022-08-07T16:08:31.519Z,100841.27
2022-08-07T16:10:17.572Z,100836.11
2022-08-07T16:13:17.367Z,100836.95
2022-08-07T16:16:47.540Z,100841.39
2022-08-07T16:19:42.230Z,100837.94
2022-08-07T16:22:55.548Z,100836.51
2022-08-07T16:25:54.860Z,100834.66
2022-08-07T16:30:06.569Z,100834.88
2022-08-07T16:31:51.783Z,100835.29
2022-08-07T16:34:48.241Z,100834.86
2022-08-07T16:38:06.207Z,100835.80
2022-08-07T16:40:56.943Z,100835.11
2022-08-07T16:44:02.601Z,100833.14
2022-08-07T16:47:22.909Z,100830.95
2022-08-07T16:50:39.114Z,100826.86
2022-08-07T16:54:03.164Z,100828.96
2022-08-07T16:56:53.619Z,100826.27
2022-08-07T16:59:46.114Z,100826.41
2022-08-07T17:02:53.372Z,100827.54
2022-08-07T17:06:26.714Z,100828.20
2022-08-07T17:08:18.274Z,100830.87
2022-08-07T17:10:57.970Z,100834.09
2022-08-07T17:14:18.502Z,100830.46
2022-08-07T17:16:56.103Z,100832.53
2022-08-07T17:20:02.286Z,100833.00
2022-08-07T17:23:12.864Z,100834.51
2022-08-07T17:26:22.816Z,100837.92
2022-08-07T17:30:14.764Z,100838.05
2022-08-07T17:32:53.553Z,100834.02
2022-08-07T17:35:54.625Z,100836.83
2022-08-07T17:38:44.464Z,100838.45
2022-08-07T17:42:03.934Z,100838.54
2022-08-07T17:44:33.678Z,100838.98
2022-08-07T17:47:43.057Z,100838.45
2022-08-07T17:50:30.234Z,100842.14
2022-08-07T17:54:01.359Z,100841.02
2022-08-07T17:56:29.172Z,100839.74
2022-08-07T17:59:02.155Z,100839.73
2022-08-07T18:01:46.039Z,100840.27
2022-08-07T18:04:34.537Z,100843.17
2022-08-07T18:07:23.819Z,100845.44
2022-08-07T18:10:10.307Z,100845.45
2022-08-07T18:13:03.518Z,100842.16
2022-08-07T18:16:13.243Z,100838.25
2022-08-07T18:21:03.288Z,100845.23
2022-08-07T18:22:00.619Z,100846.91
2022-08-07T18:24:41.513Z,100853.58
2022-08-07T18:27:21.806Z,100855.15
2022-08-07T18:30:05.336Z,100859.77
2022-08-07T18:33:10.917Z,100857.56
2022-08-07T18:36:05.966Z,100848.44
2022-08-07T18:40:06.755Z,100853.83
2022-08-07T18:42:13.107Z,100865.36
2022-08-07T18:45:43.995Z,100868.45
2022-08-07T18:50:05.244Z,100872.70
2022-08-07T18:52:34.998Z,100869.55
2022-08-07T18:54:49.773Z,100872.70
2022-08-07T18:57:59.609Z,100869.50
2022-08-07T19:02:31.821Z,100874.65
2022-08-07T19:04:32.101Z,100878.11
2022-08-07T19:07:34.607Z,100884.52
2022-08-07T19:10:18.461Z,100889.73
2022-08-07T19:13:21.497Z,100892.48
2022-08-07T19:16:43.110Z,100900.31
2022-08-07T19:19:13.207Z,100899.73
2022-08-07T19:22:04.866Z,100898.73
2022-08-07T19:24:49.940Z,100896.93
2022-08-07T19:28:57.463Z,100895.79
2022-08-07T19:31:04.784Z,100900.87
2022-08-07T19:33:13.266Z,100903.72
2022-08-07T19:35:53.843Z,100904.92
2022-08-07T19:38:28.007Z,100907.04
2022-08-07T19:41:00.849Z,100908.19
2022-08-07T19:43:48.638Z,100905.90
2022-08-07T19:46:30.794Z,100901.52
2022-08-07T19:49:09.990Z,100904.13
2022-08-07T19:51:51.755Z,100902.11
2022-08-07T19:54:34.445Z,100900.42
2022-08-07T19:58:00.788Z,100899.05
2022-08-07T20:00:28.337Z,100903.00
2022-08-07T20:03:35.209Z,100903.27
2022-08-07T20:06:04.680Z,100902.19
2022-08-07T20:08:39.897Z,100898.38
2022-08-07T20:12:01.403Z,100907.37
2022-08-07T20:14:31.764Z,100909.63
2022-08-07T20:17:07.020Z,100909.03
2022-08-07T20:19:58.563Z,100913.57
2022-08-07T20:22:34.217Z,100914.70
2022-08-07T20:25:19.763Z,100908.39
2022-08-07T20:27:58.595Z,100905.95
2022-08-07T20:30:42.085Z,100911.65
2022-08-07T20:33:36.573Z,100909.78
2022-08-07T20:36:12.064Z,100910.13
2022-08-07T20:39:00.760Z,100904.41
2022-08-07T20:41:40.792Z,100912.94
2022-08-07T20:44:13.070Z,100913.55
2022-08-07T20:46:47.196Z,100914.55
2022-08-07T20:49:58.517Z,100913.64
2022-08-07T20:52:50.698Z,100910.38
2022-08-07T20:55:17.268Z,100907.35
2022-08-07T20:58:03.567Z,100907.89
2022-08-07T21:00:44.573Z,100906.17
2022-08-07T21:03:25.619Z,100905.85
2022-08-07T21:06:12.316Z,100905.00
2022-08-07T21:09:13.641Z,100912.55
2022-08-07T21:11:50.890Z,100910.21
2022-08-07T21:14:32.316Z,100913.45
2022-08-07T21:18:05.902Z,100908.70
2022-08-07T21:20:04.786Z,100907.34
2022-08-07T21:22:55.437Z,100910.10
2022-08-07T21:25:42.465Z,100913.77
2022-08-07T21:28:18.912Z,100913.09
2022-08-07T21:31:31.387Z,100916.00
2022-08-07T21:34:48.698Z,100913.25
2022-08-07T21:37:58.808Z,100917.88
2022-08-07T21:40:40.370Z,100918.25
2022-08-07T21:43:47.174Z,100919.52
2022-08-07T21:46:31.343Z,100914.60
2022-08-07T21:49:14.879Z,100916.40
2022-08-07T21:52:09.117Z,100919.72
2022-08-07T21:54:52.787Z,100926.30
2022-08-07T21:57:44.895Z,100926.48
2022-08-07T22:00:25.877Z,100928.24
2022-08-07T22:03:30.833Z,100927.38
2022-08-07T22:06:30.162Z,100927.97
2022-08-07T22:09:08.464Z,100927.05
2022-08-07T22:12:05.006Z,100932.22
2022-08-07T22:16:42.751Z,100932.28
2022-08-07T22:18:11.791Z,100931.42
2022-08-07T22:21:01.554Z,100932.68
2022-08-07T22:23:44.846Z,100934.87
2022-08-07T22:26:19.146Z,100935.05
2022-08-07T22:28:56.634Z,100934.51
2022-08-07T22:32:05.342Z,100931.19
2022-08-07T22:34:40.707Z,100930.16
2022-08-07T22:37:23.883Z,100925.64
2022-08-07T22:40:05.096Z,100928.09
2022-08-07T22:42:37.172Z,100924.04
2022-08-07T22:45:10.900Z,100924.84
2022-08-07T22:48:56.171Z,100923.82
2022-08-07T22:51:10.139Z,100925.72
2022-08-07T22:54:22.284Z,100925.02
2022-08-07T22:57:34.507Z,100927.07
2022-08-07T23:00:21.574Z,100929.98
2022-08-07T23:03:15.739Z,100927.63
2022-08-07T23:06:08.275Z,100925.61
2022-08-07T23:08:45.829Z,100925.54
2022-08-07T23:11:35.026Z,100924.07
2022-08-07T23:14:25.602Z,100924.44
2022-08-07T23:17:03.958Z,100925.45
2022-08-07T23:20:21.715Z,100921.36
2022-08-07T23:24:05.680Z,100921.55
2022-08-07T23:27:34.036Z,100921.72
2022-08-07T23:30:37.607Z,100922.02
2022-08-07T23:34:22.553Z,100926.11
2022-08-07T23:36:29.845Z,100922.38
2022-08-07T23:39:21.946Z,100925.23
2022-08-07T23:42:04.196Z,100921.22
2022-08-07T23:45:15.036Z,100926.48
2022-08-07T23:48:09.916Z,100922.67
2022-08-07T23:53:01.973Z,100923.98
2022-08-07T23:54:43.948Z,100920.98
2022-08-07T23:57:28.121Z,100919.71
